createdAt,value
2018-11-10T00:00:19.261Z,55.63
2018-11-10T00:02:48.649Z,56.77
2018-11-10T00:05:17.861Z,63.00
2018-11-10T00:07:46.371Z,55.67
2018-11-10T00:10:14.916Z,54.50
2018-11-10T00:12:43.407Z,51.33
2018-11-10T00:15:13.234Z,49.93
2018-11-10T00:17:41.702Z,50.03
2018-11-10T00:20:10.604Z,49.40
2018-11-10T00:22:40.200Z,57.90
2018-11-10T00:25:10.124Z,51.87
2018-11-10T00:27:38.632Z,56.37
2018-11-10T00:30:08.725Z,53.03
2018-11-10T00:32:37.191Z,56.43
2018-11-10T00:35:06.312Z,50.80
2018-11-10T00:37:34.950Z,51.63
2018-11-10T00:40:03.476Z,57.23
2018-11-10T00:42:32.130Z,59.23
2018-11-10T00:45:00.571Z,56.27
2018-11-10T00:47:29.070Z,54.30
2018-11-10T00:49:57.566Z,54.00
2018-11-10T00:52:26.025Z,55.67
2018-11-10T00:54:54.546Z,51.23
2018-11-10T00:57:23.036Z,58.97
2018-11-10T00:59:51.536Z,48.33
2018-11-10T01:02:20.065Z,53.60
2018-11-10T01:04:48.500Z,54.53
2018-11-10T01:07:17.023Z,55.77
2018-11-10T01:09:45.533Z,50.07
2018-11-10T01:12:14.016Z,58.60
2018-11-10T01:14:42.522Z,55.70
2018-11-10T01:17:10.984Z,62.07
2018-11-10T01:19:39.461Z,57.33
2018-11-10T01:22:07.944Z,54.83
2018-11-10T01:24:36.483Z,58.00
2018-11-10T01:27:05.225Z,59.43
2018-11-10T01:29:33.696Z,58.77
2018-11-10T01:32:02.117Z,55.67
2018-11-10T01:34:30.559Z,55.73
2018-11-10T01:36:59.008Z,61.60
2018-11-10T01:39:27.435Z,54.10
2018-11-10T01:41:55.939Z,56.77
2018-11-10T01:44:24.357Z,51.43
2018-11-10T01:46:52.871Z,53.20
2018-11-10T01:49:21.414Z,55.27
2018-11-10T01:51:49.954Z,56.43
2018-11-10T01:54:18.439Z,47.90
2018-11-10T01:56:47.047Z,50.83
2018-11-10T01:59:15.563Z,54.70
2018-11-10T02:01:44.015Z,51.23
2018-11-10T02:04:12.483Z,53.03
2018-11-10T02:06:41.027Z,47.00
2018-11-10T02:09:10.250Z,47.93
2018-11-10T02:11:38.698Z,48.83
2018-11-10T02:14:07.766Z,53.07
2018-11-10T02:16:36.223Z,57.37
2018-11-10T02:19:04.987Z,52.30
2018-11-10T02:21:33.400Z,52.37
2018-11-10T02:24:01.888Z,49.77
2018-11-10T02:26:30.564Z,54.03
2018-11-10T02:28:59.335Z,52.70
2018-11-10T02:31:27.782Z,49.83
2018-11-10T02:33:56.224Z,53.57
2018-11-10T02:36:24.660Z,51.60
2018-11-10T02:38:53.206Z,55.53
2018-11-10T02:41:21.624Z,48.00
2018-11-10T02:43:50.055Z,52.10
2018-11-10T02:46:18.553Z,47.87
2018-11-10T02:48:46.974Z,52.73
2018-11-10T02:51:15.416Z,51.07
2018-11-10T02:53:43.880Z,48.80
2018-11-10T02:56:12.339Z,51.20
2018-11-10T02:58:40.814Z,48.60
2018-11-10T03:01:09.629Z,47.57
2018-11-10T03:03:38.103Z,61.33
2018-11-10T03:06:06.727Z,53.10
2018-11-10T03:08:35.184Z,51.47
2018-11-10T03:11:03.610Z,56.67
2018-11-10T03:13:32.012Z,53.67
2018-11-10T03:16:00.448Z,50.43
2018-11-10T03:18:29.921Z,48.93
2018-11-10T03:20:58.315Z,52.23
2018-11-10T03:23:26.735Z,50.20
2018-11-10T03:25:55.205Z,59.20
2018-11-10T03:28:23.663Z,50.17
2018-11-10T03:30:52.111Z,50.30
2018-11-10T03:33:20.555Z,55.77
2018-11-10T03:35:49.092Z,46.33
2018-11-10T03:38:17.603Z,49.83
2018-11-10T03:40:46.115Z,47.07
2018-11-10T03:43:14.673Z,50.77
2018-11-10T03:45:43.591Z,49.13
2018-11-10T03:48:12.053Z,46.20
2018-11-10T03:50:40.533Z,50.70
2018-11-10T03:53:08.940Z,43.33
2018-11-10T03:55:37.422Z,48.53
2018-11-10T03:58:05.907Z,52.60
2018-11-10T04:00:34.379Z,48.27
2018-11-10T04:03:02.882Z,52.13
2018-11-10T04:05:31.366Z,50.93
2018-11-10T04:08:00.054Z,57.57
2018-11-10T04:10:28.534Z,57.67
2018-11-10T04:12:56.989Z,51.90
2018-11-10T04:15:25.481Z,55.97
2018-11-10T04:17:53.968Z,47.00
2018-11-10T04:20:22.534Z,53.23
2018-11-10T04:22:50.941Z,53.23
2018-11-10T04:25:19.357Z,54.40
2018-11-10T04:27:47.880Z,51.17
2018-11-10T04:30:16.356Z,47.60
2018-11-10T04:32:44.852Z,50.97
2018-11-10T04:35:13.304Z,53.63
2018-11-10T04:37:42.082Z,47.93
2018-11-10T04:40:11.286Z,57.30
2018-11-10T04:42:40.176Z,52.50
2018-11-10T04:45:09.684Z,50.43
2018-11-10T04:47:38.204Z,51.77
2018-11-10T04:50:07.958Z,56.53
2018-11-10T04:52:36.409Z,53.57
2018-11-10T04:55:05.064Z,51.33
2018-11-10T04:57:33.543Z,51.90
2018-11-10T05:00:02.193Z,54.77
2018-11-10T05:02:30.703Z,54.17
2018-11-10T05:04:59.255Z,48.07
2018-11-10T05:07:27.716Z,52.87
2018-11-10T05:09:56.162Z,52.20
2018-11-10T05:12:24.629Z,53.13
2018-11-10T05:14:53.032Z,53.90
2018-11-10T05:17:21.485Z,50.00
2018-11-10T05:19:50.081Z,52.37
2018-11-10T05:22:18.512Z,53.03
2018-11-10T05:24:46.975Z,48.53
2018-11-10T05:27:15.418Z,52.90
2018-11-10T05:29:43.880Z,49.00
2018-11-10T05:32:12.412Z,56.60
2018-11-10T05:34:40.953Z,51.77
2018-11-10T05:37:09.499Z,46.13
2018-11-10T05:39:37.963Z,45.33
2018-11-10T05:42:06.668Z,48.23
2018-11-10T05:44:35.200Z,39.43
2018-11-10T05:47:05.977Z,44.83
2018-11-10T05:49:34.463Z,41.87
2018-11-10T05:52:02.941Z,41.53
2018-11-10T05:54:31.391Z,40.23
2018-11-10T05:56:59.882Z,35.23
2018-11-10T05:59:28.831Z,40.63
2018-11-10T06:01:57.691Z,42.53
2018-11-10T06:04:26.111Z,37.80
2018-11-10T06:06:54.787Z,42.00
2018-11-10T06:09:23.287Z,36.13
2018-11-10T06:11:51.742Z,32.83
2018-11-10T06:14:20.165Z,39.00
2018-11-10T06:16:48.659Z,37.67
2018-11-10T06:19:17.285Z,50.33
2018-11-10T06:21:46.758Z,37.17
2018-11-10T06:24:15.228Z,36.10
2018-11-10T06:26:43.696Z,37.90
2018-11-10T06:29:12.108Z,33.07
2018-11-10T06:31:40.518Z,30.93
2018-11-10T06:34:08.986Z,32.50
2018-11-10T06:36:37.467Z,34.97
2018-11-10T06:39:09.060Z,31.37
2018-11-10T06:41:37.588Z,29.83
2018-11-10T06:44:06.059Z,28.17
2018-11-10T06:46:34.504Z,28.03
2018-11-10T06:49:02.936Z,40.07
2018-11-10T06:51:31.411Z,29.90
2018-11-10T06:53:59.834Z,26.10
2018-11-10T06:56:28.261Z,24.60
2018-11-10T06:58:56.707Z,23.53
2018-11-10T07:01:25.301Z,24.30
2018-11-10T07:03:53.845Z,21.73
2018-11-10T07:06:22.322Z,23.17
2018-11-10T07:08:51.048Z,23.87
2018-11-10T07:11:19.533Z,18.10
2018-11-10T07:13:47.973Z,18.57
2018-11-10T07:16:16.421Z,19.63
2018-11-10T07:18:44.913Z,16.00
2018-11-10T07:21:13.399Z,21.27
2018-11-10T07:23:41.853Z,18.03
2018-11-10T07:26:10.337Z,17.00
2018-11-10T07:28:38.822Z,21.33
2018-11-10T07:31:07.397Z,16.73
2018-11-10T07:33:35.905Z,16.27
2018-11-10T07:36:04.401Z,18.00
2018-11-10T07:38:33.315Z,12.60
2018-11-10T07:41:01.813Z,14.40
2018-11-10T07:43:30.285Z,14.50
2018-11-10T07:45:58.841Z,15.03
2018-11-10T07:48:27.401Z,14.90
2018-11-10T07:50:55.923Z,15.87
2018-11-10T07:53:24.343Z,13.00
2018-11-10T07:55:52.851Z,13.97
2018-11-10T07:58:21.287Z,11.93
2018-11-10T08:00:49.785Z,11.87
2018-11-10T08:03:18.375Z,12.23
2018-11-10T08:05:46.932Z,15.77
2018-11-10T08:08:15.459Z,19.30
2018-11-10T08:11:06.353Z,14.67
2018-11-10T08:22:07.257Z,11.83
2018-11-10T08:24:36.133Z,11.87
2018-11-10T08:27:04.706Z,13.27
2018-11-10T08:32:23.869Z,12.63
2018-11-10T08:34:52.403Z,11.60
2018-11-10T08:37:20.938Z,13.27
2018-11-10T08:39:49.464Z,11.97
2018-11-10T08:42:17.954Z,11.90
2018-11-10T08:44:46.574Z,14.63
2018-11-10T08:47:15.108Z,13.90
2018-11-10T08:49:43.604Z,11.20
2018-11-10T08:52:12.102Z,11.13
2018-11-10T08:54:40.827Z,11.13
2018-11-10T08:57:09.477Z,11.50
2018-11-10T08:59:37.994Z,11.17
2018-11-10T09:02:06.916Z,12.03
2018-11-10T09:04:35.466Z,11.00
2018-11-10T09:07:04.140Z,12.37
2018-11-10T09:09:32.860Z,12.60
2018-11-10T09:12:01.572Z,13.30
2018-11-10T09:14:30.164Z,11.17
2018-11-10T09:16:58.638Z,10.27
2018-11-10T09:19:27.212Z,10.77
2018-11-10T09:21:55.581Z,10.00
2018-11-10T09:24:24.454Z,10.20
2018-11-10T09:26:53.425Z,11.67
2018-11-10T09:29:21.963Z,12.47
2018-11-10T09:31:50.477Z,10.53
2018-11-10T09:34:19.373Z,10.43
2018-11-10T09:36:47.818Z,10.83
2018-11-10T09:39:16.505Z,11.07
2018-11-10T09:41:44.987Z,10.47
2018-11-10T09:44:14.165Z,10.67
2018-11-10T09:46:42.594Z,13.70
2018-11-10T09:49:13.347Z,10.60
2018-11-10T09:51:41.895Z,10.67
2018-11-10T09:54:10.432Z,12.70
2018-11-10T09:56:39.137Z,13.87
2018-11-10T09:59:16.447Z,11.77
2018-11-10T10:01:45.799Z,11.43
2018-11-10T10:04:14.282Z,10.57
2018-11-10T10:06:42.726Z,12.87
2018-11-10T10:09:11.804Z,10.47
2018-11-10T10:11:40.905Z,12.10
2018-11-10T10:14:10.288Z,11.47
2018-11-10T10:16:39.348Z,11.27
2018-11-10T10:19:08.747Z,11.67
2018-11-10T10:21:37.268Z,11.60
2018-11-10T10:24:06.480Z,11.47
2018-11-10T10:26:35.014Z,12.53
2018-11-10T10:29:03.577Z,12.97
2018-11-10T10:31:32.103Z,15.53
2018-11-10T10:34:00.817Z,12.93
2018-11-10T10:36:29.229Z,12.87
2018-11-10T10:38:57.726Z,15.00
2018-11-10T10:41:26.342Z,12.53
2018-11-10T10:43:54.835Z,13.80
2018-11-10T10:46:23.425Z,14.67
2018-11-10T10:48:53.009Z,16.80
2018-11-10T10:51:21.406Z,13.70
2018-11-10T10:53:49.916Z,13.87
2018-11-10T10:56:18.577Z,16.00
2018-11-10T10:58:47.204Z,14.30
2018-11-10T11:01:20.994Z,13.70
2018-11-10T11:03:54.743Z,12.43
2018-11-10T11:06:24.160Z,14.57
2018-11-10T11:08:52.667Z,15.97
2018-11-10T11:11:21.205Z,12.80
2018-11-10T11:13:49.663Z,14.60
2018-11-10T11:16:18.090Z,12.50
2018-11-10T11:18:46.569Z,13.33
2018-11-10T11:21:14.993Z,17.33
2018-11-10T11:23:43.482Z,14.00
2018-11-10T11:26:11.999Z,12.57
2018-11-10T11:28:40.405Z,15.03
2018-11-10T11:31:09.001Z,14.70
2018-11-10T11:33:37.507Z,12.40
2018-11-10T11:36:06.025Z,12.10
2018-11-10T11:38:34.745Z,11.80
2018-11-10T11:41:03.256Z,11.83
2018-11-10T11:43:31.861Z,15.10
2018-11-10T11:46:00.334Z,12.27
2018-11-10T11:48:28.800Z,13.23
2018-11-10T11:50:57.386Z,14.93
2018-11-10T11:53:25.861Z,12.67
2018-11-10T11:55:54.341Z,15.60
2018-11-10T11:58:22.969Z,13.57
2018-11-10T12:00:51.785Z,13.77
2018-11-10T12:03:20.475Z,13.57
2018-11-10T12:05:48.973Z,13.90
2018-11-10T12:08:17.487Z,18.83
2018-11-10T12:10:46.133Z,16.10
2018-11-10T12:13:14.703Z,16.00
2018-11-10T12:15:43.132Z,13.90
2018-11-10T12:18:11.774Z,16.47
2018-11-10T12:20:40.376Z,13.60
2018-11-10T12:23:08.836Z,14.57
2018-11-10T12:25:37.418Z,14.40
2018-11-10T12:28:06.682Z,12.97
2018-11-10T12:30:35.250Z,15.07
2018-11-10T12:33:03.856Z,16.63
2018-11-10T12:35:32.453Z,17.43
2018-11-10T12:38:00.929Z,16.63
2018-11-10T12:40:29.437Z,14.87
2018-11-10T12:42:57.969Z,17.23
2018-11-10T12:45:27.392Z,14.33
2018-11-10T12:47:55.908Z,13.33
2018-11-10T12:50:24.428Z,13.53
2018-11-10T12:52:53.124Z,16.67
2018-11-10T12:55:21.655Z,14.07
2018-11-10T12:57:50.163Z,16.07
2018-11-10T13:00:18.715Z,14.20
2018-11-10T13:02:47.734Z,16.70
2018-11-10T13:05:16.956Z,16.33
2018-11-10T13:07:46.408Z,15.23
2018-11-10T13:10:14.964Z,16.63
2018-11-10T13:12:43.885Z,16.13
2018-11-10T13:15:12.406Z,14.47
2018-11-10T13:17:40.961Z,18.30
2018-11-10T13:20:11.957Z,17.33
2018-11-10T13:22:40.667Z,16.23
2018-11-10T13:25:10.321Z,15.77
2018-11-10T13:27:39.153Z,14.33
2018-11-10T13:30:09.295Z,16.47
2018-11-10T13:32:37.697Z,16.17
2018-11-10T13:35:07.227Z,14.37
2018-11-10T13:37:35.708Z,14.43
2018-11-10T13:40:04.253Z,16.10
2018-11-10T13:42:32.737Z,17.87
2018-11-10T13:45:01.348Z,15.83
2018-11-10T13:47:30.077Z,15.73
2018-11-10T13:50:00.097Z,17.30
2018-11-10T13:52:29.028Z,14.60
2018-11-10T13:54:57.033Z,15.13
2018-11-10T13:57:25.525Z,15.10
2018-11-10T13:59:54.065Z,14.33
2018-11-10T14:02:22.704Z,16.20
2018-11-10T14:04:51.186Z,12.67
2018-11-10T14:07:20.009Z,15.43
2018-11-10T14:09:48.606Z,14.67
2018-11-10T14:12:17.249Z,14.10
2018-11-10T14:14:46.563Z,16.13
2018-11-10T14:17:15.542Z,14.30
2018-11-10T14:19:44.069Z,12.17
2018-11-10T14:22:12.509Z,14.50
2018-11-10T14:24:41.401Z,15.87
2018-11-10T14:27:10.043Z,18.30
2018-11-10T14:29:38.630Z,11.57
2018-11-10T14:32:07.172Z,13.47
2018-11-10T14:34:36.236Z,11.47
2018-11-10T14:37:04.908Z,12.40
2018-11-10T14:39:33.365Z,13.63
2018-11-10T14:42:01.942Z,12.73
2018-11-10T14:44:31.903Z,13.53
2018-11-10T14:47:00.398Z,11.17
2018-11-10T14:49:28.856Z,13.63
2018-11-10T14:51:57.408Z,12.63
2018-11-10T14:54:25.918Z,12.43
2018-11-10T14:56:54.485Z,13.70
2018-11-10T14:59:22.900Z,15.50
2018-11-10T15:01:51.347Z,15.53
2018-11-10T15:04:20.119Z,15.10
2018-11-10T15:06:48.541Z,13.07
2018-11-10T15:09:17.040Z,12.60
2018-11-10T15:11:45.611Z,13.87
2018-11-10T15:14:14.002Z,15.87
2018-11-10T15:16:42.484Z,13.10
2018-11-10T15:19:11.321Z,13.30
2018-11-10T15:21:39.780Z,11.67
2018-11-10T15:24:08.228Z,16.40
2018-11-10T15:26:36.675Z,15.53
2018-11-10T15:29:05.776Z,13.73
2018-11-10T15:31:34.228Z,12.87
2018-11-10T15:34:03.229Z,13.03
2018-11-10T15:36:31.639Z,11.90
2018-11-10T15:39:00.569Z,13.33
2018-11-10T15:41:29.337Z,11.97
2018-11-10T15:43:58.017Z,13.07
2018-11-10T15:46:26.424Z,13.33
2018-11-10T15:48:55.173Z,14.33
2018-11-10T15:51:25.221Z,14.97
2018-11-10T15:53:54.157Z,15.70
2018-11-10T15:56:22.633Z,16.10
2018-11-10T15:58:51.155Z,15.57
2018-11-10T16:01:19.622Z,16.47
2018-11-10T16:03:48.068Z,15.67
2018-11-10T16:06:17.009Z,15.63
2018-11-10T16:08:45.481Z,12.47
2018-11-10T16:11:13.914Z,16.83
2018-11-10T16:13:42.361Z,13.87
2018-11-10T16:16:10.807Z,15.63
2018-11-10T16:18:39.966Z,13.87
2018-11-10T16:21:08.489Z,14.37
2018-11-10T16:23:36.941Z,15.60
2018-11-10T16:26:06.197Z,12.83
2018-11-10T16:28:34.711Z,15.13
2018-11-10T16:31:03.330Z,13.20
2018-11-10T16:33:32.197Z,16.00
2018-11-10T16:36:00.644Z,13.53
2018-11-10T16:38:29.195Z,18.57
2018-11-10T16:40:57.605Z,14.73
2018-11-10T16:43:26.085Z,15.77
2018-11-10T16:45:55.099Z,18.30
2018-11-10T16:48:23.568Z,17.90
2018-11-10T16:50:52.061Z,16.20
2018-11-10T16:53:20.515Z,16.20
2018-11-10T16:55:48.891Z,15.03
2018-11-10T16:58:17.343Z,14.67
2018-11-10T17:00:45.836Z,15.57
2018-11-10T17:03:14.242Z,14.23
2018-11-10T17:05:42.696Z,16.63
2018-11-10T17:08:11.144Z,13.57
2018-11-10T17:10:39.594Z,16.17
2018-11-10T17:13:08.006Z,14.83
2018-11-10T17:15:36.534Z,16.93
2018-11-10T17:18:04.950Z,19.17
2018-11-10T17:20:34.412Z,17.60
2018-11-10T17:23:02.943Z,15.93
2018-11-10T17:25:31.382Z,16.27
2018-11-10T17:27:59.824Z,13.97
2018-11-10T17:30:28.309Z,16.80
2018-11-10T17:32:56.735Z,14.37
2018-11-10T17:35:25.186Z,16.17
2018-11-10T17:37:53.982Z,17.37
2018-11-10T17:40:22.525Z,17.30
2018-11-10T17:42:50.894Z,19.63
2018-11-10T17:45:19.640Z,19.03
2018-11-10T17:47:48.006Z,15.13
2018-11-10T17:50:17.659Z,16.50
2018-11-10T17:52:46.146Z,20.33
2018-11-10T17:55:15.669Z,18.67
2018-11-10T17:57:45.965Z,15.93
2018-11-10T18:00:14.539Z,18.00
2018-11-10T18:02:43.005Z,17.67
2018-11-10T18:05:13.345Z,18.27
2018-11-10T18:07:41.712Z,21.63
2018-11-10T18:10:12.129Z,14.40
2018-11-10T18:12:40.906Z,17.37
2018-11-10T18:15:10.102Z,13.47
2018-11-10T18:17:39.118Z,17.27
2018-11-10T18:20:08.373Z,17.90
2018-11-10T18:22:36.999Z,18.50
2018-11-10T18:25:05.740Z,16.17
2018-11-10T18:27:34.287Z,19.43
2018-11-10T18:30:02.851Z,17.60
2018-11-10T18:32:31.664Z,17.33
2018-11-10T18:35:00.074Z,16.33
2018-11-10T18:37:32.011Z,19.13
2018-11-10T18:40:00.799Z,17.13
2018-11-10T18:42:31.430Z,16.93
2018-11-10T18:44:59.885Z,17.10
2018-11-10T18:47:28.376Z,16.87
2018-11-10T18:49:56.845Z,18.93
2018-11-10T18:52:25.351Z,17.17
2018-11-10T18:54:53.715Z,20.33
2018-11-10T18:57:22.302Z,18.13
2018-11-10T18:59:50.602Z,17.03
2018-11-10T19:02:19.092Z,17.63
2018-11-10T19:04:47.623Z,19.67
2018-11-10T19:07:16.070Z,19.27
2018-11-10T19:09:44.554Z,15.27
2018-11-10T19:12:13.000Z,22.83
2018-11-10T19:14:41.459Z,18.63
2018-11-10T19:17:09.989Z,16.53
2018-11-10T19:19:39.000Z,18.17
2018-11-10T19:22:07.423Z,15.93
2018-11-10T19:24:35.968Z,14.33
2018-11-10T19:27:04.453Z,15.77
2018-11-10T19:29:32.884Z,13.93
2018-11-10T19:32:01.457Z,20.40
2018-11-10T19:34:29.940Z,14.03
2018-11-10T19:36:58.416Z,16.93
2018-11-10T19:39:26.833Z,17.70
2018-11-10T19:41:55.525Z,15.83
2018-11-10T19:44:23.984Z,18.40
2018-11-10T19:46:52.416Z,18.87
2018-11-10T19:49:20.832Z,24.60
2018-11-10T19:51:49.657Z,17.20
2018-11-10T19:54:17.800Z,15.40
2018-11-10T19:56:46.233Z,15.27
2018-11-10T19:59:14.631Z,18.43
2018-11-10T20:01:43.019Z,15.97
2018-11-10T20:04:11.466Z,15.50
2018-11-10T20:06:40.582Z,17.37
2018-11-10T20:09:09.927Z,18.73
2018-11-10T20:11:38.498Z,18.40
2018-11-10T20:14:07.466Z,19.50
2018-11-10T20:16:35.832Z,20.50
2018-11-10T20:19:04.550Z,18.53
2018-11-10T20:21:33.071Z,16.90
2018-11-10T20:24:01.544Z,17.47
2018-11-10T20:26:30.022Z,19.33
2018-11-10T20:28:59.527Z,16.50
2018-11-10T20:31:28.900Z,21.83
2018-11-10T20:33:57.380Z,16.87
2018-11-10T20:36:25.863Z,18.83
2018-11-10T20:38:54.431Z,19.10
2018-11-10T20:41:22.908Z,17.63
2018-11-10T20:43:51.363Z,18.30
2018-11-10T20:46:19.779Z,17.97
2018-11-10T20:48:48.278Z,20.53
2018-11-10T20:51:16.717Z,15.87
2018-11-10T20:53:45.184Z,20.83
2018-11-10T20:56:13.642Z,19.30
2018-11-10T20:58:42.060Z,24.93
2018-11-10T21:01:10.669Z,18.63
2018-11-10T21:03:39.127Z,21.20
2018-11-10T21:06:07.557Z,18.20
2018-11-10T21:08:37.768Z,20.80
2018-11-10T21:11:07.216Z,20.67
2018-11-10T21:13:35.705Z,22.70
2018-11-10T21:16:04.234Z,21.87
2018-11-10T21:18:32.720Z,22.53
2018-11-10T21:21:01.969Z,20.00
2018-11-10T21:23:30.455Z,21.30
2018-11-10T21:25:58.893Z,21.77
2018-11-10T21:28:27.369Z,20.10
2018-11-10T21:30:56.349Z,24.57
2018-11-10T21:33:24.806Z,21.10
2018-11-10T21:35:53.208Z,21.33
2018-11-10T21:38:22.887Z,22.27
2018-11-10T21:40:51.373Z,20.87
2018-11-10T21:43:20.115Z,21.83
2018-11-10T21:45:48.546Z,19.10
2018-11-10T21:48:17.069Z,21.60
2018-11-10T21:50:45.535Z,23.27
2018-11-10T21:53:13.984Z,25.40
2018-11-10T21:55:42.977Z,20.70
2018-11-10T21:58:11.439Z,22.03
2018-11-10T22:00:39.926Z,21.33
2018-11-10T22:03:08.569Z,20.80
2018-11-10T22:05:37.475Z,19.93
2018-11-10T22:08:05.971Z,22.07
2018-11-10T22:10:34.396Z,19.87
2018-11-10T22:13:02.858Z,21.17
2018-11-10T22:15:31.295Z,20.93
2018-11-10T22:17:59.795Z,20.37
2018-11-10T22:20:28.221Z,20.07
2018-11-10T22:22:56.657Z,22.27
2018-11-10T22:25:25.098Z,24.67
2018-11-10T22:27:54.412Z,21.93
2018-11-10T22:30:23.664Z,25.17
2018-11-10T22:32:52.323Z,23.13
2018-11-10T22:35:21.579Z,24.80
2018-11-10T22:37:50.046Z,19.23
2018-11-10T22:40:20.461Z,22.13
2018-11-10T22:42:50.167Z,21.30
2018-11-10T22:45:20.775Z,18.23
2018-11-10T22:47:49.782Z,19.70
2018-11-10T22:50:19.456Z,18.43
2018-11-10T22:52:48.038Z,21.43
2018-11-10T22:55:16.742Z,20.70
2018-11-10T22:57:45.472Z,19.67
2018-11-10T23:00:17.381Z,23.23
2018-11-10T23:02:48.353Z,21.83
2018-11-10T23:05:17.305Z,20.10
2018-11-10T23:07:45.808Z,21.77
2018-11-10T23:10:15.007Z,24.27
2018-11-10T23:12:44.534Z,23.10
2018-11-10T23:15:13.034Z,18.87
2018-11-10T23:17:42.152Z,19.80
2018-11-10T23:20:12.080Z,20.47
2018-11-10T23:22:40.484Z,21.83
2018-11-10T23:25:10.831Z,19.60
2018-11-10T23:27:39.279Z,19.30
2018-11-10T23:30:10.954Z,22.17
2018-11-10T23:32:40.454Z,22.37
2018-11-10T23:35:09.420Z,21.20
2018-11-10T23:37:37.865Z,20.43
2018-11-10T23:40:07.415Z,22.57
2018-11-10T23:42:35.829Z,20.87
2018-11-10T23:45:04.777Z,25.27
2018-11-10T23:47:33.278Z,24.87
2018-11-10T23:50:01.682Z,22.87
2018-11-10T23:52:30.181Z,26.17
2018-11-10T23:54:58.834Z,26.13
2018-11-10T23:57:27.297Z,23.23
2018-11-10T23:59:55.769Z,22.00
